sensor_id;sensor_type;location;lat;lon;timestamp;P1;durP1;ratioP1;P2;durP2;ratioP2
18102;SDS011;9178;51.120;6.192;2023-11-21T00:02:25;59.60;;;19.00;;
18102;SDS011;9178;51.120;6.192;2023-11-21T00:04:54;71.77;;;18.80;;
18102;SDS011;9178;51.120;6.192;2023-11-21T00:07:22;62.20;;;16.50;;
18102;SDS011;9178;51.120;6.192;2023-11-21T00:09:49;51.70;;;18.53;;
18102;SDS011;9178;51.120;6.192;2023-11-21T00:12:16;57.57;;;19.20;;
18102;SDS011;9178;51.120;6.192;2023-11-21T00:14:43;64.13;;;20.33;;
18102;SDS011;9178;51.120;6.192;2023-11-21T00:17:09;33.70;;;14.30;;
18102;SDS011;9178;51.120;6.192;2023-11-21T00:19:39;26.23;;;14.27;;
18102;SDS011;9178;51.120;6.192;2023-11-21T00:22:09;38.33;;;16.10;;
18102;SDS011;9178;51.120;6.192;2023-11-21T00:24:36;45.27;;;17.47;;
18102;SDS011;9178;51.120;6.192;2023-11-21T00:27:03;21.03;;;13.33;;
18102;SDS011;9178;51.120;6.192;2023-11-21T00:29:33;26.63;;;13.60;;
18102;SDS011;9178;51.120;6.192;2023-11-21T00:32:00;42.03;;;17.77;;
18102;SDS011;9178;51.120;6.192;2023-11-21T00:34:28;72.47;;;19.20;;
18102;SDS011;9178;51.120;6.192;2023-11-21T00:36:55;51.23;;;19.47;;
18102;SDS011;9178;51.120;6.192;2023-11-21T00:39:23;39.83;;;17.20;;
18102;SDS011;9178;51.120;6.192;2023-11-21T00:41:51;27.23;;;15.13;;
18102;SDS011;9178;51.120;6.192;2023-11-21T00:44:21;56.70;;;18.97;;
18102;SDS011;9178;51.120;6.192;2023-11-21T00:46:48;78.33;;;22.77;;
18102;SDS011;9178;51.120;6.192;2023-11-21T00:49:15;78.83;;;21.00;;
18102;SDS011;9178;51.120;6.192;2023-11-21T00:51:42;89.07;;;23.27;;
18102;SDS011;9178;51.120;6.192;2023-11-21T00:54:12;88.03;;;23.33;;
18102;SDS011;9178;51.120;6.192;2023-11-21T00:56:43;115.83;;;25.07;;
18102;SDS011;9178;51.120;6.192;2023-11-21T00:59:12;169.43;;;29.47;;
18102;SDS011;9178;51.120;6.192;2023-11-21T01:01:39;80.77;;;18.43;;
18102;SDS011;9178;51.120;6.192;2023-11-21T01:04:10;100.60;;;24.40;;
18102;SDS011;9178;51.120;6.192;2023-11-21T01:06:38;150.47;;;32.03;;
18102;SDS011;9178;51.120;6.192;2023-11-21T01:09:05;139.87;;;29.83;;
18102;SDS011;9178;51.120;6.192;2023-11-21T01:11:34;177.07;;;32.37;;
18102;SDS011;9178;51.120;6.192;2023-11-21T01:14:03;144.33;;;29.37;;
18102;SDS011;9178;51.120;6.192;2023-11-21T01:16:31;231.47;;;39.77;;
18102;SDS011;9178;51.120;6.192;2023-11-21T01:18:58;128.50;;;27.40;;
18102;SDS011;9178;51.120;6.192;2023-11-21T01:21:29;154.87;;;31.30;;
18102;SDS011;9178;51.120;6.192;2023-11-21T01:23:56;342.03;;;45.70;;
18102;SDS011;9178;51.120;6.192;2023-11-21T01:26:23;265.07;;;40.47;;
18102;SDS011;9178;51.120;6.192;2023-11-21T01:28:50;146.27;;;30.60;;
18102;SDS011;9178;51.120;6.192;2023-11-21T01:31:18;279.67;;;42.10;;
18102;SDS011;9178;51.120;6.192;2023-11-21T01:33:45;222.23;;;37.23;;
18102;SDS011;9178;51.120;6.192;2023-11-21T01:36:13;275.43;;;38.90;;
18102;SDS011;9178;51.120;6.192;2023-11-21T01:38:40;418.03;;;53.03;;
18102;SDS011;9178;51.120;6.192;2023-11-21T01:41:16;266.10;;;39.73;;
18102;SDS011;9178;51.120;6.192;2023-11-21T01:43:46;368.73;;;48.63;;
18102;SDS011;9178;51.120;6.192;2023-11-21T01:46:13;423.40;;;50.40;;
18102;SDS011;9178;51.120;6.192;2023-11-21T01:48:42;309.13;;;41.40;;
18102;SDS011;9178;51.120;6.192;2023-11-21T01:51:10;328.33;;;42.93;;
18102;SDS011;9178;51.120;6.192;2023-11-21T01:53:37;355.03;;;46.93;;
18102;SDS011;9178;51.120;6.192;2023-11-21T01:56:04;360.93;;;48.07;;
18102;SDS011;9178;51.120;6.192;2023-11-21T01:58:33;328.63;;;45.17;;
18102;SDS011;9178;51.120;6.192;2023-11-21T02:01:00;439.53;;;51.90;;
18102;SDS011;9178;51.120;6.192;2023-11-21T02:03:27;572.50;;;68.83;;
18102;SDS011;9178;51.120;6.192;2023-11-21T02:05:57;523.70;;;59.30;;
18102;SDS011;9178;51.120;6.192;2023-11-21T02:08:24;469.03;;;57.40;;
18102;SDS011;9178;51.120;6.192;2023-11-21T02:10:52;251.13;;;37.80;;
18102;SDS011;9178;51.120;6.192;2023-11-21T02:13:19;340.60;;;46.93;;
18102;SDS011;9178;51.120;6.192;2023-11-21T02:15:45;611.00;;;73.00;;
18102;SDS011;9178;51.120;6.192;2023-11-21T02:18:14;549.57;;;67.67;;
18102;SDS011;9178;51.120;6.192;2023-11-21T02:20:43;466.67;;;60.87;;
18102;SDS011;9178;51.120;6.192;2023-11-21T02:23:12;429.23;;;53.50;;
18102;SDS011;9178;51.120;6.192;2023-11-21T02:25:39;451.90;;;57.17;;
18102;SDS011;9178;51.120;6.192;2023-11-21T02:28:10;521.03;;;62.33;;
18102;SDS011;9178;51.120;6.192;2023-11-21T02:30:50;278.83;;;40.93;;
18102;SDS011;9178;51.120;6.192;2023-11-21T02:33:22;515.10;;;61.77;;
18102;SDS011;9178;51.120;6.192;2023-11-21T02:35:48;410.40;;;53.53;;
18102;SDS011;9178;51.120;6.192;2023-11-21T02:38:19;225.37;;;38.07;;
18102;SDS011;9178;51.120;6.192;2023-11-21T02:40:47;525.27;;;59.07;;
18102;SDS011;9178;51.120;6.192;2023-11-21T02:43:17;606.03;;;70.83;;
18102;SDS011;9178;51.120;6.192;2023-11-21T02:45:44;331.20;;;46.43;;
18102;SDS011;9178;51.120;6.192;2023-11-21T02:48:13;121.33;;;26.80;;
18102;SDS011;9178;51.120;6.192;2023-11-21T02:50:39;341.53;;;46.57;;
18102;SDS011;9178;51.120;6.192;2023-11-21T02:53:08;213.97;;;35.23;;
18102;SDS011;9178;51.120;6.192;2023-11-21T02:55:37;475.40;;;60.87;;
18102;SDS011;9178;51.120;6.192;2023-11-21T02:58:04;445.07;;;57.73;;
18102;SDS011;9178;51.120;6.192;2023-11-21T03:00:31;489.13;;;58.43;;
18102;SDS011;9178;51.120;6.192;2023-11-21T03:02:58;520.80;;;63.87;;
18102;SDS011;9178;51.120;6.192;2023-11-21T03:05:25;388.03;;;49.97;;
18102;SDS011;9178;51.120;6.192;2023-11-21T03:07:54;526.70;;;60.33;;
18102;SDS011;9178;51.120;6.192;2023-11-21T03:10:21;652.87;;;76.70;;
18102;SDS011;9178;51.120;6.192;2023-11-21T03:12:53;580.07;;;63.40;;
18102;SDS011;9178;51.120;6.192;2023-11-21T03:15:22;625.80;;;73.63;;
18102;SDS011;9178;51.120;6.192;2023-11-21T03:18:03;548.43;;;64.47;;
18102;SDS011;9178;51.120;6.192;2023-11-21T03:20:30;582.37;;;70.10;;
18102;SDS011;9178;51.120;6.192;2023-11-21T03:22:57;573.97;;;72.83;;
18102;SDS011;9178;51.120;6.192;2023-11-21T03:25:24;426.43;;;57.17;;
18102;SDS011;9178;51.120;6.192;2023-11-21T03:27:56;143.80;;;31.23;;
18102;SDS011;9178;51.120;6.192;2023-11-21T03:30:23;272.73;;;46.03;;
18102;SDS011;9178;51.120;6.192;2023-11-21T03:32:50;307.40;;;44.80;;
18102;SDS011;9178;51.120;6.192;2023-11-21T03:35:17;391.30;;;52.80;;
18102;SDS011;9178;51.120;6.192;2023-11-21T03:37:46;346.97;;;49.57;;
18102;SDS011;9178;51.120;6.192;2023-11-21T03:40:16;281.17;;;45.80;;
18102;SDS011;9178;51.120;6.192;2023-11-21T03:42:44;146.50;;;32.97;;
18102;SDS011;9178;51.120;6.192;2023-11-21T03:45:14;335.20;;;52.53;;
18102;SDS011;9178;51.120;6.192;2023-11-21T03:47:41;173.40;;;35.10;;
18102;SDS011;9178;51.120;6.192;2023-11-21T03:50:08;229.77;;;41.17;;
18102;SDS011;9178;51.120;6.192;2023-11-21T03:52:37;312.87;;;49.87;;
18102;SDS011;9178;51.120;6.192;2023-11-21T03:55:07;262.97;;;44.20;;
18102;SDS011;9178;51.120;6.192;2023-11-21T03:57:35;312.90;;;49.77;;
18102;SDS011;9178;51.120;6.192;2023-11-21T04:00:03;256.23;;;44.30;;
18102;SDS011;9178;51.120;6.192;2023-11-21T04:02:34;122.30;;;35.23;;
18102;SDS011;9178;51.120;6.192;2023-11-21T04:05:05;72.30;;;28.03;;
18102;SDS011;9178;51.120;6.192;2023-11-21T04:07:32;218.67;;;44.00;;
18102;SDS011;9178;51.120;6.192;2023-11-21T04:09:58;88.43;;;28.03;;
18102;SDS011;9178;51.120;6.192;2023-11-21T04:12:26;91.60;;;32.03;;
18102;SDS011;9178;51.120;6.192;2023-11-21T04:14:53;153.20;;;37.67;;
18102;SDS011;9178;51.120;6.192;2023-11-21T04:17:29;150.53;;;37.00;;
18102;SDS011;9178;51.120;6.192;2023-11-21T04:19:59;137.13;;;35.47;;
18102;SDS011;9178;51.120;6.192;2023-11-21T04:22:26;186.53;;;40.40;;
18102;SDS011;9178;51.120;6.192;2023-11-21T04:24:53;186.60;;;39.40;;
18102;SDS011;9178;51.120;6.192;2023-11-21T04:27:20;153.37;;;37.67;;
18102;SDS011;9178;51.120;6.192;2023-11-21T04:29:48;179.10;;;40.53;;
18102;SDS011;9178;51.120;6.192;2023-11-21T04:32:14;156.03;;;36.40;;
18102;SDS011;9178;51.120;6.192;2023-11-21T04:34:44;154.70;;;38.20;;
18102;SDS011;9178;51.120;6.192;2023-11-21T04:37:12;192.97;;;41.63;;
18102;SDS011;9178;51.120;6.192;2023-11-21T04:39:39;194.03;;;40.93;;
18102;SDS011;9178;51.120;6.192;2023-11-21T04:42:06;189.80;;;39.07;;
18102;SDS011;9178;51.120;6.192;2023-11-21T04:44:33;158.83;;;37.73;;
18102;SDS011;9178;51.120;6.192;2023-11-21T04:47:00;212.20;;;41.37;;
18102;SDS011;9178;51.120;6.192;2023-11-21T04:49:30;145.27;;;37.40;;
18102;SDS011;9178;51.120;6.192;2023-11-21T04:51:57;187.10;;;40.57;;
18102;SDS011;9178;51.120;6.192;2023-11-21T04:54:25;252.53;;;44.87;;
18102;SDS011;9178;51.120;6.192;2023-11-21T04:56:52;172.70;;;38.57;;
18102;SDS011;9178;51.120;6.192;2023-11-21T04:59:22;148.20;;;36.37;;
18102;SDS011;9178;51.120;6.192;2023-11-21T05:01:52;104.63;;;33.20;;
18102;SDS011;9178;51.120;6.192;2023-11-21T05:04:24;184.73;;;42.33;;
18102;SDS011;9178;51.120;6.192;2023-11-21T05:06:53;263.30;;;47.57;;
18102;SDS011;9178;51.120;6.192;2023-11-21T05:09:22;151.37;;;37.00;;
18102;SDS011;9178;51.120;6.192;2023-11-21T05:11:50;203.40;;;40.50;;
18102;SDS011;9178;51.120;6.192;2023-11-21T05:14:18;198.70;;;41.43;;
18102;SDS011;9178;51.120;6.192;2023-11-21T05:16:49;212.43;;;38.43;;
18102;SDS011;9178;51.120;6.192;2023-11-21T05:19:19;207.63;;;42.27;;
18102;SDS011;9178;51.120;6.192;2023-11-21T05:21:46;202.03;;;43.27;;
18102;SDS011;9178;51.120;6.192;2023-11-21T05:24:13;231.77;;;44.80;;
18102;SDS011;9178;51.120;6.192;2023-11-21T05:26:41;200.73;;;41.37;;
18102;SDS011;9178;51.120;6.192;2023-11-21T05:29:11;162.97;;;39.60;;
18102;SDS011;9178;51.120;6.192;2023-11-21T05:31:38;140.77;;;33.33;;
18102;SDS011;9178;51.120;6.192;2023-11-21T05:34:08;109.20;;;33.83;;
18102;SDS011;9178;51.120;6.192;2023-11-21T05:36:35;190.73;;;41.53;;
18102;SDS011;9178;51.120;6.192;2023-11-21T05:39:04;152.33;;;37.40;;
18102;SDS011;9178;51.120;6.192;2023-11-21T05:41:31;281.20;;;47.63;;
18102;SDS011;9178;51.120;6.192;2023-11-21T05:43:58;155.03;;;38.40;;
18102;SDS011;9178;51.120;6.192;2023-11-21T05:46:28;252.80;;;46.73;;
18102;SDS011;9178;51.120;6.192;2023-11-21T05:48:55;168.87;;;38.73;;
18102;SDS011;9178;51.120;6.192;2023-11-21T05:51:22;252.53;;;49.20;;
18102;SDS011;9178;51.120;6.192;2023-11-21T05:53:50;137.70;;;36.40;;
18102;SDS011;9178;51.120;6.192;2023-11-21T05:56:17;216.20;;;43.47;;
18102;SDS011;9178;51.120;6.192;2023-11-21T05:58:51;228.83;;;44.03;;
18102;SDS011;9178;51.120;6.192;2023-11-21T06:01:18;204.73;;;40.50;;
18102;SDS011;9178;51.120;6.192;2023-11-21T06:03:49;324.53;;;50.40;;
18102;SDS011;9178;51.120;6.192;2023-11-21T06:06:19;278.77;;;46.80;;
18102;SDS011;9178;51.120;6.192;2023-11-21T06:08:47;169.97;;;35.73;;
18102;SDS011;9178;51.120;6.192;2023-11-21T06:11:14;365.83;;;51.43;;
18102;SDS011;9178;51.120;6.192;2023-11-21T06:13:42;350.13;;;47.70;;
18102;SDS011;9178;51.120;6.192;2023-11-21T06:16:09;344.93;;;48.33;;
18102;SDS011;9178;51.120;6.192;2023-11-21T06:18:38;253.30;;;39.90;;
18102;SDS011;9178;51.120;6.192;2023-11-21T06:21:08;328.07;;;45.37;;
18102;SDS011;9178;51.120;6.192;2023-11-21T06:23:36;321.20;;;47.20;;
18102;SDS011;9178;51.120;6.192;2023-11-21T06:26:03;336.83;;;45.57;;
18102;SDS011;9178;51.120;6.192;2023-11-21T06:28:31;533.93;;;58.10;;
18102;SDS011;9178;51.120;6.192;2023-11-21T06:30:58;284.43;;;39.53;;
18102;SDS011;9178;51.120;6.192;2023-11-21T06:33:30;350.50;;;44.33;;
18102;SDS011;9178;51.120;6.192;2023-11-21T06:35:57;356.83;;;46.70;;
18102;SDS011;9178;51.120;6.192;2023-11-21T06:38:29;540.13;;;55.93;;
18102;SDS011;9178;51.120;6.192;2023-11-21T06:40:57;523.73;;;56.47;;
18102;SDS011;9178;51.120;6.192;2023-11-21T06:43:30;549.90;;;56.60;;
18102;SDS011;9178;51.120;6.192;2023-11-21T06:45:57;684.47;;;67.40;;
18102;SDS011;9178;51.120;6.192;2023-11-21T06:48:24;295.30;;;40.77;;
18102;SDS011;9178;51.120;6.192;2023-11-21T06:50:52;243.13;;;36.83;;
18102;SDS011;9178;51.120;6.192;2023-11-21T06:53:24;288.60;;;37.37;;
18102;SDS011;9178;51.120;6.192;2023-11-21T06:55:56;468.23;;;51.63;;
18102;SDS011;9178;51.120;6.192;2023-11-21T06:58:23;553.20;;;55.43;;
18102;SDS011;9178;51.120;6.192;2023-11-21T07:01:01;555.47;;;55.07;;
18102;SDS011;9178;51.120;6.192;2023-11-21T07:03:31;502.13;;;51.50;;
18102;SDS011;9178;51.120;6.192;2023-11-21T07:06:01;508.70;;;50.13;;
18102;SDS011;9178;51.120;6.192;2023-11-21T07:08:29;522.77;;;50.90;;
18102;SDS011;9178;51.120;6.192;2023-11-21T07:10:56;654.10;;;65.60;;
18102;SDS011;9178;51.120;6.192;2023-11-21T07:13:23;400.93;;;43.87;;
18102;SDS011;9178;51.120;6.192;2023-11-21T07:15:51;643.20;;;62.63;;
18102;SDS011;9178;51.120;6.192;2023-11-21T07:18:19;417.47;;;43.30;;
18102;SDS011;9178;51.120;6.192;2023-11-21T07:20:46;559.67;;;51.43;;
18102;SDS011;9178;51.120;6.192;2023-11-21T07:23:13;569.43;;;53.43;;
18102;SDS011;9178;51.120;6.192;2023-11-21T07:25:45;222.37;;;30.50;;
18102;SDS011;9178;51.120;6.192;2023-11-21T07:28:12;536.80;;;51.13;;
18102;SDS011;9178;51.120;6.192;2023-11-21T07:30:39;406.43;;;41.70;;
18102;SDS011;9178;51.120;6.192;2023-11-21T07:33:07;276.03;;;34.23;;
18102;SDS011;9178;51.120;6.192;2023-11-21T07:35:36;234.17;;;30.40;;
18102;SDS011;9178;51.120;6.192;2023-11-21T07:38:03;413.03;;;38.97;;
18102;SDS011;9178;51.120;6.192;2023-11-21T07:40:33;569.87;;;49.73;;
18102;SDS011;9178;51.120;6.192;2023-11-21T07:43:02;382.23;;;38.33;;
18102;SDS011;9178;51.120;6.192;2023-11-21T07:45:30;341.37;;;35.10;;
18102;SDS011;9178;51.120;6.192;2023-11-21T07:47:58;328.73;;;33.47;;
18102;SDS011;9178;51.120;6.192;2023-11-21T07:50:25;172.33;;;27.53;;
18102;SDS011;9178;51.120;6.192;2023-11-21T07:52:53;310.33;;;34.60;;
18102;SDS011;9178;51.120;6.192;2023-11-21T07:55:21;440.27;;;39.73;;
18102;SDS011;9178;51.120;6.192;2023-11-21T07:57:51;282.07;;;32.10;;
18102;SDS011;9178;51.120;6.192;2023-11-21T08:00:20;180.23;;;26.60;;
18102;SDS011;9178;51.120;6.192;2023-11-21T08:02:49;266.67;;;31.30;;
18102;SDS011;9178;51.120;6.192;2023-11-21T08:05:19;478.23;;;42.60;;
18102;SDS011;9178;51.120;6.192;2023-11-21T08:07:47;263.80;;;28.83;;
18102;SDS011;9178;51.120;6.192;2023-11-21T08:10:14;330.13;;;32.63;;
18102;SDS011;9178;51.120;6.192;2023-11-21T08:12:42;273.53;;;31.53;;
18102;SDS011;9178;51.120;6.192;2023-11-21T08:15:17;394.07;;;37.47;;
18102;SDS011;9178;51.120;6.192;2023-11-21T08:17:45;157.73;;;24.33;;
18102;SDS011;9178;51.120;6.192;2023-11-21T08:20:13;301.13;;;32.97;;
18102;SDS011;9178;51.120;6.192;2023-11-21T08:22:41;150.00;;;24.03;;
18102;SDS011;9178;51.120;6.192;2023-11-21T08:25:09;125.60;;;22.10;;
18102;SDS011;9178;51.120;6.192;2023-11-21T08:27:37;97.40;;;19.10;;
18102;SDS011;9178;51.120;6.192;2023-11-21T08:30:07;76.57;;;18.13;;
18102;SDS011;9178;51.120;6.192;2023-11-21T08:32:49;78.73;;;17.27;;
18102;SDS011;9178;51.120;6.192;2023-11-21T08:35:17;131.47;;;22.00;;
18102;SDS011;9178;51.120;6.192;2023-11-21T08:37:44;62.30;;;16.23;;
18102;SDS011;9178;51.120;6.192;2023-11-21T08:40:12;121.80;;;22.03;;
18102;SDS011;9178;51.120;6.192;2023-11-21T08:42:41;131.00;;;21.70;;
18102;SDS011;9178;51.120;6.192;2023-11-21T08:45:10;92.53;;;19.17;;
18102;SDS011;9178;51.120;6.192;2023-11-21T08:47:43;100.93;;;22.10;;
18102;SDS011;9178;51.120;6.192;2023-11-21T08:50:12;152.47;;;24.87;;
18102;SDS011;9178;51.120;6.192;2023-11-21T08:52:43;224.23;;;28.07;;
18102;SDS011;9178;51.120;6.192;2023-11-21T08:55:14;133.23;;;22.87;;
18102;SDS011;9178;51.120;6.192;2023-11-21T08:57:45;214.47;;;29.10;;
18102;SDS011;9178;51.120;6.192;2023-11-21T09:00:12;136.07;;;24.30;;
18102;SDS011;9178;51.120;6.192;2023-11-21T09:02:42;128.63;;;23.37;;
18102;SDS011;9178;51.120;6.192;2023-11-21T09:05:13;111.23;;;23.30;;
18102;SDS011;9178;51.120;6.192;2023-11-21T09:07:41;164.53;;;25.90;;
18102;SDS011;9178;51.120;6.192;2023-11-21T09:10:13;124.93;;;23.10;;
18102;SDS011;9178;51.120;6.192;2023-11-21T09:12:40;98.97;;;21.30;;
18102;SDS011;9178;51.120;6.192;2023-11-21T09:15:09;94.90;;;21.03;;
18102;SDS011;9178;51.120;6.192;2023-11-21T09:17:40;134.23;;;24.47;;
18102;SDS011;9178;51.120;6.192;2023-11-21T09:20:08;68.70;;;19.10;;
18102;SDS011;9178;51.120;6.192;2023-11-21T09:22:37;75.03;;;19.53;;
18102;SDS011;9178;51.120;6.192;2023-11-21T09:25:05;90.30;;;21.10;;
18102;SDS011;9178;51.120;6.192;2023-11-21T09:27:33;104.97;;;23.07;;
18102;SDS011;9178;51.120;6.192;2023-11-21T09:30:01;76.37;;;19.40;;
18102;SDS011;9178;51.120;6.192;2023-11-21T09:32:30;75.27;;;20.17;;
18102;SDS011;9178;51.120;6.192;2023-11-21T09:34:57;60.20;;;18.67;;
18102;SDS011;9178;51.120;6.192;2023-11-21T09:37:27;58.67;;;19.00;;
18102;SDS011;9178;51.120;6.192;2023-11-21T09:39:56;53.83;;;18.30;;
18102;SDS011;9178;51.120;6.192;2023-11-21T09:42:30;45.47;;;17.73;;
18102;SDS011;9178;51.120;6.192;2023-11-21T09:45:03;66.87;;;20.47;;
18102;SDS011;9178;51.120;6.192;2023-11-21T09:47:35;50.47;;;17.57;;
18102;SDS011;9178;51.120;6.192;2023-11-21T09:50:05;60.27;;;20.37;;
18102;SDS011;9178;51.120;6.192;2023-11-21T09:52:35;46.83;;;17.03;;
18102;SDS011;9178;51.120;6.192;2023-11-21T09:55:12;59.47;;;18.03;;
18102;SDS011;9178;51.120;6.192;2023-11-21T09:57:41;79.23;;;20.73;;
18102;SDS011;9178;51.120;6.192;2023-11-21T10:00:09;46.50;;;16.77;;
18102;SDS011;9178;51.120;6.192;2023-11-21T10:02:40;60.43;;;18.40;;
18102;SDS011;9178;51.120;6.192;2023-11-21T10:05:15;67.93;;;19.50;;
18102;SDS011;9178;51.120;6.192;2023-11-21T10:07:45;47.17;;;16.53;;
18102;SDS011;9178;51.120;6.192;2023-11-21T10:10:15;52.00;;;16.70;;
18102;SDS011;9178;51.120;6.192;2023-11-21T10:12:46;49.43;;;16.97;;
18102;SDS011;9178;51.120;6.192;2023-11-21T10:15:18;57.87;;;17.73;;
18102;SDS011;9178;51.120;6.192;2023-11-21T10:17:50;49.87;;;16.53;;
18102;SDS011;9178;51.120;6.192;2023-11-21T10:20:21;39.30;;;15.60;;
18102;SDS011;9178;51.120;6.192;2023-11-21T10:22:52;70.63;;;19.07;;
18102;SDS011;9178;51.120;6.192;2023-11-21T10:25:21;46.73;;;16.03;;
18102;SDS011;9178;51.120;6.192;2023-11-21T10:27:48;45.40;;;17.23;;
18102;SDS011;9178;51.120;6.192;2023-11-21T10:30:17;48.23;;;16.87;;
18102;SDS011;9178;51.120;6.192;2023-11-21T10:32:46;50.87;;;17.57;;
18102;SDS011;9178;51.120;6.192;2023-11-21T10:35:13;55.63;;;18.10;;
18102;SDS011;9178;51.120;6.192;2023-11-21T10:37:43;65.43;;;18.90;;
18102;SDS011;9178;51.120;6.192;2023-11-21T10:40:10;53.63;;;18.43;;
18102;SDS011;9178;51.120;6.192;2023-11-21T10:42:44;43.40;;;16.60;;
18102;SDS011;9178;51.120;6.192;2023-11-21T10:45:12;44.57;;;17.00;;
18102;SDS011;9178;51.120;6.192;2023-11-21T10:47:43;39.67;;;16.00;;
18102;SDS011;9178;51.120;6.192;2023-11-21T10:50:11;45.67;;;17.33;;
18102;SDS011;9178;51.120;6.192;2023-11-21T10:52:41;39.20;;;16.10;;
18102;SDS011;9178;51.120;6.192;2023-11-21T10:55:21;42.73;;;16.73;;
18102;SDS011;9178;51.120;6.192;2023-11-21T10:57:52;41.93;;;16.50;;
18102;SDS011;9178;51.120;6.192;2023-11-21T11:00:20;37.63;;;16.00;;
18102;SDS011;9178;51.120;6.192;2023-11-21T11:02:51;39.30;;;16.30;;
18102;SDS011;9178;51.120;6.192;2023-11-21T11:05:21;42.53;;;16.40;;
18102;SDS011;9178;51.120;6.192;2023-11-21T11:07:52;45.43;;;16.97;;
18102;SDS011;9178;51.120;6.192;2023-11-21T11:10:26;44.53;;;16.73;;
18102;SDS011;9178;51.120;6.192;2023-11-21T11:12:56;43.67;;;17.13;;
18102;SDS011;9178;51.120;6.192;2023-11-21T11:15:24;44.37;;;17.07;;
18102;SDS011;9178;51.120;6.192;2023-11-21T11:17:52;36.73;;;15.63;;
18102;SDS011;9178;51.120;6.192;2023-11-21T11:20:23;40.60;;;16.57;;
18102;SDS011;9178;51.120;6.192;2023-11-21T11:23:04;40.93;;;16.03;;
18102;SDS011;9178;51.120;6.192;2023-11-21T11:25:49;42.40;;;17.43;;
18102;SDS011;9178;51.120;6.192;2023-11-21T11:28:37;46.77;;;18.80;;
18102;SDS011;9178;51.120;6.192;2023-11-21T11:31:13;45.60;;;18.87;;
18102;SDS011;9178;51.120;6.192;2023-11-21T11:33:58;42.17;;;18.07;;
18102;SDS011;9178;51.120;6.192;2023-11-21T11:36:35;40.03;;;17.37;;
18102;SDS011;9178;51.120;6.192;2023-11-21T11:42:01;37.93;;;16.40;;
18102;SDS011;9178;51.120;6.192;2023-11-21T11:44:47;46.90;;;17.20;;
18102;SDS011;9178;51.120;6.192;2023-11-21T11:47:30;37.50;;;16.10;;
18102;SDS011;9178;51.120;6.192;2023-11-21T11:50:06;33.10;;;15.80;;
18102;SDS011;9178;51.120;6.192;2023-11-21T11:52:38;37.43;;;16.07;;
18102;SDS011;9178;51.120;6.192;2023-11-21T11:55:07;35.83;;;16.30;;
18102;SDS011;9178;51.120;6.192;2023-11-21T11:57:38;34.83;;;15.37;;
18102;SDS011;9178;51.120;6.192;2023-11-21T12:00:14;33.77;;;16.23;;
18102;SDS011;9178;51.120;6.192;2023-11-21T12:02:49;37.43;;;16.47;;
18102;SDS011;9178;51.120;6.192;2023-11-21T12:05:18;34.97;;;16.30;;
18102;SDS011;9178;51.120;6.192;2023-11-21T12:07:46;38.87;;;16.87;;
18102;SDS011;9178;51.120;6.192;2023-11-21T12:10:14;31.73;;;15.27;;
18102;SDS011;9178;51.120;6.192;2023-11-21T12:12:46;38.20;;;16.80;;
18102;SDS011;9178;51.120;6.192;2023-11-21T12:15:16;37.87;;;16.20;;
18102;SDS011;9178;51.120;6.192;2023-11-21T12:17:44;32.97;;;15.70;;
18102;SDS011;9178;51.120;6.192;2023-11-21T12:20:15;34.80;;;15.90;;
18102;SDS011;9178;51.120;6.192;2023-11-21T12:22:47;32.20;;;14.90;;
18102;SDS011;9178;51.120;6.192;2023-11-21T12:25:20;32.83;;;15.53;;
18102;SDS011;9178;51.120;6.192;2023-11-21T12:27:55;33.60;;;14.63;;
18102;SDS011;9178;51.120;6.192;2023-11-21T12:30:25;31.30;;;14.27;;
18102;SDS011;9178;51.120;6.192;2023-11-21T12:32:56;34.10;;;15.17;;
18102;SDS011;9178;51.120;6.192;2023-11-21T12:35:25;29.33;;;14.20;;
18102;SDS011;9178;51.120;6.192;2023-11-21T12:37:56;26.23;;;13.87;;
18102;SDS011;9178;51.120;6.192;2023-11-21T12:40:31;29.00;;;13.70;;
18102;SDS011;9178;51.120;6.192;2023-11-21T12:43:01;29.50;;;14.57;;
18102;SDS011;9178;51.120;6.192;2023-11-21T12:45:31;26.40;;;15.20;;
18102;SDS011;9178;51.120;6.192;2023-11-21T12:48:04;28.53;;;14.87;;
18102;SDS011;9178;51.120;6.192;2023-11-21T12:50:38;35.67;;;18.73;;
18102;SDS011;9178;51.120;6.192;2023-11-21T12:53:10;35.37;;;18.60;;
18102;SDS011;9178;51.120;6.192;2023-11-21T12:55:38;37.23;;;19.37;;
18102;SDS011;9178;51.120;6.192;2023-11-21T12:58:09;43.43;;;20.23;;
18102;SDS011;9178;51.120;6.192;2023-11-21T13:00:44;39.50;;;19.10;;
18102;SDS011;9178;51.120;6.192;2023-11-21T13:03:21;41.60;;;21.00;;
18102;SDS011;9178;51.120;6.192;2023-11-21T13:05:51;44.23;;;22.00;;
18102;SDS011;9178;51.120;6.192;2023-11-21T13:08:23;46.83;;;22.70;;
18102;SDS011;9178;51.120;6.192;2023-11-21T13:11:05;49.07;;;24.03;;
18102;SDS011;9178;51.120;6.192;2023-11-21T13:13:39;41.63;;;22.47;;
18102;SDS011;9178;51.120;6.192;2023-11-21T13:16:14;44.30;;;23.87;;
18102;SDS011;9178;51.120;6.192;2023-11-21T13:18:46;38.37;;;19.27;;
18102;SDS011;9178;51.120;6.192;2023-11-21T13:21:15;36.83;;;19.07;;
18102;SDS011;9178;51.120;6.192;2023-11-21T13:23:48;35.20;;;18.07;;
18102;SDS011;9178;51.120;6.192;2023-11-21T13:26:18;31.27;;;16.63;;
18102;SDS011;9178;51.120;6.192;2023-11-21T13:28:45;25.83;;;14.53;;
18102;SDS011;9178;51.120;6.192;2023-11-21T13:31:17;23.53;;;12.83;;
18102;SDS011;9178;51.120;6.192;2023-11-21T13:33:57;20.70;;;11.83;;
18102;SDS011;9178;51.120;6.192;2023-11-21T13:36:30;22.67;;;12.13;;
18102;SDS011;9178;51.120;6.192;2023-11-21T13:39:00;18.83;;;8.27;;
18102;SDS011;9178;51.120;6.192;2023-11-21T13:41:32;17.43;;;8.17;;
18102;SDS011;9178;51.120;6.192;2023-11-21T13:43:59;13.30;;;6.70;;
18102;SDS011;9178;51.120;6.192;2023-11-21T13:46:41;14.23;;;7.07;;
18102;SDS011;9178;51.120;6.192;2023-11-21T13:49:08;10.77;;;5.80;;
18102;SDS011;9178;51.120;6.192;2023-11-21T13:51:35;12.53;;;6.80;;
18102;SDS011;9178;51.120;6.192;2023-11-21T13:54:07;10.20;;;6.20;;
18102;SDS011;9178;51.120;6.192;2023-11-21T13:56:34;9.43;;;6.07;;
18102;SDS011;9178;51.120;6.192;2023-11-21T13:59:02;11.57;;;6.63;;
18102;SDS011;9178;51.120;6.192;2023-11-21T14:01:39;11.63;;;5.83;;
18102;SDS011;9178;51.120;6.192;2023-11-21T14:04:24;8.60;;;5.33;;
18102;SDS011;9178;51.120;6.192;2023-11-21T14:07:18;8.33;;;6.10;;
18102;SDS011;9178;51.120;6.192;2023-11-21T14:09:51;8.57;;;5.63;;
18102;SDS011;9178;51.120;6.192;2023-11-21T14:12:23;8.97;;;5.93;;
18102;SDS011;9178;51.120;6.192;2023-11-21T14:14:50;8.43;;;6.07;;
18102;SDS011;9178;51.120;6.192;2023-11-21T14:17:19;9.03;;;6.27;;
18102;SDS011;9178;51.120;6.192;2023-11-21T14:19:47;8.57;;;6.20;;
18102;SDS011;9178;51.120;6.192;2023-11-21T14:22:15;11.57;;;7.17;;
18102;SDS011;9178;51.120;6.192;2023-11-21T14:24:42;10.00;;;5.93;;
18102;SDS011;9178;51.120;6.192;2023-11-21T14:27:12;9.83;;;6.37;;
18102;SDS011;9178;51.120;6.192;2023-11-21T14:29:41;11.77;;;7.13;;
18102;SDS011;9178;51.120;6.192;2023-11-21T14:32:09;11.93;;;6.37;;
18102;SDS011;9178;51.120;6.192;2023-11-21T14:34:42;10.80;;;5.60;;
18102;SDS011;9178;51.120;6.192;2023-11-21T14:37:13;12.33;;;8.47;;
18102;SDS011;9178;51.120;6.192;2023-11-21T14:39:40;12.70;;;7.00;;
18102;SDS011;9178;51.120;6.192;2023-11-21T14:42:12;9.80;;;6.60;;
18102;SDS011;9178;51.120;6.192;2023-11-21T14:44:49;8.73;;;5.13;;
18102;SDS011;9178;51.120;6.192;2023-11-21T14:47:17;6.97;;;4.70;;